createdAt,value
2023-05-19T00:00:26.751Z,3.97
2023-05-19T00:05:30.734Z,4.28
2023-05-19T00:10:33.648Z,3.00
2023-05-19T00:15:36.352Z,2.90
2023-05-19T00:20:38.983Z,2.92
2023-05-19T00:25:41.174Z,3.53
2023-05-19T00:30:43.253Z,2.95
2023-05-19T00:35:45.485Z,3.03
2023-05-19T00:40:47.550Z,3.20
2023-05-19T00:45:49.945Z,3.00
2023-05-19T00:50:54.846Z,2.85
2023-05-19T00:55:58.068Z,3.47
2023-05-19T01:01:05.331Z,2.63
2023-05-19T01:06:09.296Z,3.22
2023-05-19T01:11:11.433Z,3.80
2023-05-19T01:16:32.333Z,3.20
2023-05-19T01:24:45.360Z,3.10
2023-05-19T01:30:19.397Z,3.63
2023-05-19T01:35:26.200Z,3.40
2023-05-19T01:40:30.261Z,3.50
2023-05-19T01:45:34.011Z,3.13
2023-05-19T01:50:36.400Z,3.03
2023-05-19T01:55:50.817Z,2.85
2023-05-19T02:01:17.064Z,3.13
2023-05-19T02:06:57.077Z,3.67
2023-05-19T02:12:09.308Z,3.35
2023-05-19T02:19:45.167Z,3.70
2023-05-19T02:24:48.056Z,3.35
2023-05-19T02:29:50.254Z,3.28
2023-05-19T02:34:53.350Z,3.70
2023-05-19T02:39:55.844Z,3.88
2023-05-19T02:44:58.148Z,3.70
2023-05-19T02:50:00.220Z,4.43
2023-05-19T02:55:03.605Z,4.32
2023-05-19T03:02:14.895Z,4.10
2023-05-19T03:07:17.312Z,4.00
2023-05-19T03:12:19.572Z,4.00
2023-05-19T03:17:21.876Z,3.35
2023-05-19T03:22:23.988Z,3.65
2023-05-19T03:27:29.523Z,4.05
2023-05-19T03:32:33.008Z,3.55
2023-05-19T03:37:35.370Z,3.90
2023-05-19T03:42:37.953Z,3.95
2023-05-19T03:47:41.356Z,3.65
2023-05-19T03:53:18.826Z,3.58
2023-05-19T03:58:20.888Z,3.42
2023-05-19T04:09:00.470Z,3.00
2023-05-19T04:14:02.713Z,3.03
2023-05-19T04:27:58.901Z,3.58
2023-05-19T04:33:01.503Z,3.90
2023-05-19T04:38:04.179Z,4.05
2023-05-19T04:43:09.595Z,3.95
2023-05-19T04:48:12.277Z,3.50
2023-05-19T04:53:15.657Z,3.70
2023-05-19T04:58:19.864Z,3.55
2023-05-19T05:03:23.257Z,3.53
2023-05-19T05:08:27.154Z,4.03
2023-05-19T05:13:30.543Z,4.18
2023-05-19T05:18:33.880Z,4.50
2023-05-19T05:23:36.734Z,3.92
2023-05-19T05:28:41.850Z,3.97
2023-05-19T05:33:44.817Z,4.22
2023-05-19T05:38:48.768Z,4.00
2023-05-19T05:43:51.183Z,4.40
2023-05-19T05:48:54.153Z,4.78
2023-05-19T05:53:57.678Z,5.05
2023-05-19T05:59:07.319Z,4.53
2023-05-19T06:04:10.435Z,4.53
2023-05-19T06:09:12.550Z,3.53
2023-05-19T06:14:14.877Z,5.88
2023-05-19T06:19:36.992Z,3.83
2023-05-19T06:24:39.641Z,4.03
2023-05-19T06:29:44.307Z,4.75
2023-05-19T06:34:54.112Z,3.72
2023-05-19T06:39:56.843Z,4.40
2023-05-19T06:45:00.198Z,3.65
2023-05-19T06:50:03.070Z,3.90
2023-05-19T06:55:13.292Z,4.28
2023-05-19T07:00:31.116Z,4.63
2023-05-19T07:05:34.027Z,4.85
2023-05-19T07:10:39.271Z,4.40
2023-05-19T07:15:45.886Z,4.55
2023-05-19T07:20:48.258Z,4.35
2023-05-19T07:25:57.002Z,4.50
2023-05-19T07:30:59.394Z,5.03
2023-05-19T07:36:01.507Z,4.70
2023-05-19T07:41:03.971Z,3.42
2023-05-19T07:46:06.532Z,3.03
2023-05-19T07:51:10.337Z,2.92
2023-05-19T07:56:12.376Z,2.83
2023-05-19T08:01:14.480Z,2.85
2023-05-19T08:06:16.629Z,2.45
2023-05-19T08:11:18.722Z,3.35
2023-05-19T08:16:20.925Z,3.13
2023-05-19T08:21:23.261Z,2.80
2023-05-19T08:26:26.417Z,2.70
2023-05-19T08:31:29.496Z,2.90
2023-05-19T08:36:31.704Z,2.50
2023-05-19T08:41:33.831Z,2.38
2023-05-19T08:46:36.290Z,2.38
2023-05-19T08:51:48.497Z,2.33
2023-05-19T08:56:50.651Z,3.38
2023-05-19T09:01:54.963Z,4.68
2023-05-19T09:06:58.911Z,4.88
2023-05-19T09:12:01.121Z,5.35
2023-05-19T09:17:03.622Z,4.93
2023-05-19T09:22:54.392Z,4.60
2023-05-19T09:27:56.755Z,4.43
2023-05-19T09:32:59.065Z,3.97
2023-05-19T09:38:01.392Z,4.60
2023-05-19T09:43:08.063Z,5.07
2023-05-19T09:48:47.357Z,5.03
2023-05-19T09:54:10.236Z,3.63
2023-05-19T09:59:16.208Z,4.10
2023-05-19T10:04:18.749Z,4.07
2023-05-19T10:09:25.026Z,4.40
2023-05-19T10:14:29.644Z,4.80
2023-05-19T10:19:31.782Z,4.65
2023-05-19T10:24:34.191Z,6.65
2023-05-19T10:29:40.216Z,4.40
2023-05-19T10:35:01.026Z,3.63
2023-05-19T10:40:13.758Z,3.53
2023-05-19T10:45:24.223Z,4.75
2023-05-19T10:50:26.619Z,3.85
2023-05-19T10:55:52.101Z,4.05
2023-05-19T11:01:01.113Z,3.60
2023-05-19T11:06:30.508Z,3.63
2023-05-19T11:11:50.344Z,4.72
2023-05-19T11:16:56.759Z,4.00
2023-05-19T11:22:13.120Z,4.32
2023-05-19T11:27:34.114Z,5.70
2023-05-19T11:32:39.614Z,4.70
2023-05-19T11:37:42.923Z,4.15
2023-05-19T11:42:45.392Z,3.90
2023-05-19T11:48:01.262Z,3.53
2023-05-19T11:53:04.449Z,3.40
2023-05-19T11:58:07.388Z,3.28
2023-05-19T12:03:10.101Z,3.25
2023-05-19T12:08:12.854Z,3.70
2023-05-19T12:13:15.062Z,3.45
2023-05-19T12:22:56.690Z,2.65
2023-05-19T12:28:00.427Z,2.83
2023-05-19T12:33:03.427Z,3.38
2023-05-19T12:38:07.166Z,3.75
2023-05-19T12:43:19.143Z,3.33
2023-05-19T12:48:24.617Z,3.28
2023-05-19T12:53:28.022Z,3.88
2023-05-19T12:58:34.337Z,2.95
2023-05-19T13:03:43.267Z,2.20
2023-05-19T13:08:47.372Z,1.90
2023-05-19T13:13:56.874Z,1.88
2023-05-19T13:18:59.604Z,1.85
2023-05-19T13:24:03.596Z,1.83
2023-05-19T13:29:06.033Z,2.30
2023-05-19T13:34:08.209Z,2.22
2023-05-19T13:39:10.829Z,1.85
2023-05-19T13:44:13.113Z,1.80
2023-05-19T13:49:15.421Z,1.85
2023-05-19T13:54:18.097Z,3.03
2023-05-19T13:59:21.659Z,3.35
2023-05-19T14:04:24.677Z,3.35
2023-05-19T14:09:28.077Z,3.60
2023-05-19T14:14:35.402Z,3.30
2023-05-19T14:22:59.614Z,3.58
2023-05-19T14:28:02.056Z,3.45
2023-05-19T14:33:04.597Z,3.70
2023-05-19T14:38:07.100Z,3.10
2023-05-19T14:43:09.090Z,3.22
2023-05-19T14:48:12.000Z,2.70
2023-05-19T14:53:14.560Z,2.47
2023-05-19T14:58:27.658Z,2.30
2023-05-19T15:03:30.969Z,2.30
2023-05-19T15:08:33.464Z,2.60
2023-05-19T15:13:35.522Z,2.75
2023-05-19T15:18:37.836Z,2.80
2023-05-19T15:23:40.098Z,2.38
2023-05-19T15:28:42.601Z,2.78
2023-05-19T15:33:44.957Z,2.58
2023-05-19T15:38:47.081Z,2.22
2023-05-19T15:43:49.402Z,2.45
2023-05-19T15:48:51.729Z,3.00
2023-05-19T15:53:57.892Z,2.38
2023-05-19T15:59:00.448Z,2.10
2023-05-19T16:04:05.543Z,2.17
2023-05-19T16:09:07.824Z,2.55
2023-05-19T16:14:09.992Z,1.95
2023-05-19T16:19:12.162Z,2.00
2023-05-19T16:24:14.434Z,2.50
2023-05-19T16:29:16.503Z,2.15
2023-05-19T16:34:18.670Z,2.40
2023-05-19T16:39:21.023Z,2.20
2023-05-19T16:44:24.666Z,2.38
2023-05-19T16:49:26.948Z,2.22
2023-05-19T16:54:29.202Z,2.38
2023-05-19T16:59:31.434Z,2.58
2023-05-19T17:04:33.836Z,2.47
2023-05-19T17:09:36.127Z,2.42
2023-05-19T17:14:38.453Z,2.22
2023-05-19T17:19:40.596Z,2.58
2023-05-19T17:24:42.911Z,2.10
2023-05-19T17:29:45.054Z,2.25
2023-05-19T17:34:47.075Z,2.30
2023-05-19T17:39:49.798Z,2.30
2023-05-19T17:44:52.062Z,2.50
2023-05-19T17:49:54.282Z,3.00
2023-05-19T17:54:56.755Z,3.40
2023-05-19T18:00:00.159Z,4.43
2023-05-19T18:05:02.662Z,3.42
2023-05-19T18:10:06.718Z,4.10
2023-05-19T18:15:09.058Z,4.18
2023-05-19T18:20:11.970Z,3.80
2023-05-19T18:25:14.197Z,4.35
2023-05-19T18:30:16.528Z,4.32
2023-05-19T18:35:20.790Z,4.30
2023-05-19T18:40:23.039Z,4.38
2023-05-19T18:45:25.323Z,3.42
2023-05-19T18:50:27.650Z,4.03
2023-05-19T18:55:30.097Z,3.78
2023-05-19T19:00:32.930Z,4.05
2023-05-19T19:05:37.569Z,4.60
2023-05-19T19:10:40.800Z,5.05
2023-05-19T19:15:43.050Z,4.60
2023-05-19T19:23:05.901Z,4.35
2023-05-19T19:28:08.971Z,3.80
2023-05-19T19:33:11.243Z,3.35
2023-05-19T19:38:13.683Z,3.72
2023-05-19T19:43:15.820Z,3.97
2023-05-19T19:48:18.045Z,4.15
2023-05-19T19:53:20.136Z,3.88
2023-05-19T19:58:22.461Z,2.70
2023-05-19T20:03:25.299Z,3.15
2023-05-19T20:08:30.355Z,5.80
2023-05-19T20:13:32.907Z,3.50
2023-05-19T20:18:35.126Z,3.03
2023-05-19T20:23:42.472Z,2.90
2023-05-19T20:28:49.925Z,3.20
2023-05-19T20:33:52.632Z,3.67
2023-05-19T20:38:55.070Z,4.45
2023-05-19T20:43:57.331Z,4.90
2023-05-19T20:48:59.511Z,5.13
2023-05-19T20:54:01.764Z,3.60
2023-05-19T20:59:06.241Z,4.47
2023-05-19T21:04:08.496Z,3.50
2023-05-19T21:09:10.892Z,3.58
2023-05-19T21:14:13.228Z,4.65
2023-05-19T21:19:15.636Z,5.20
2023-05-19T21:24:17.999Z,4.20
2023-05-19T21:29:20.426Z,4.65
2023-05-19T21:34:23.682Z,4.80
2023-05-19T21:39:25.940Z,4.53
2023-05-19T21:44:28.329Z,3.70
2023-05-19T21:49:33.051Z,4.10
2023-05-19T21:54:44.979Z,3.90
2023-05-19T21:59:51.994Z,3.78
2023-05-19T22:04:55.081Z,9.35
2023-05-19T22:10:02.972Z,4.05
2023-05-19T22:15:06.706Z,4.07
2023-05-19T22:20:09.654Z,3.95
2023-05-19T22:25:11.843Z,4.38
2023-05-19T22:30:14.175Z,4.50
2023-05-19T22:35:16.407Z,4.38
2023-05-19T22:40:19.816Z,3.85
2023-05-19T22:45:22.144Z,4.32
2023-05-19T22:50:24.782Z,3.67
2023-05-19T22:55:27.421Z,4.13
2023-05-19T23:00:35.511Z,3.15
2023-05-19T23:05:40.313Z,3.03
2023-05-19T23:10:42.363Z,4.00
2023-05-19T23:22:52.482Z,4.60
2023-05-19T23:27:55.500Z,3.42
2023-05-19T23:32:58.206Z,4.10
2023-05-19T23:38:03.742Z,4.85
2023-05-19T23:43:06.260Z,4.80
2023-05-19T23:48:11.446Z,4.65
2023-05-19T23:53:13.883Z,4.93
2023-05-19T23:58:16.232Z,5.85
